sensor_id;sensor_type;location;lat;lon;timestamp;pressure;altitude;pressure_sealevel;temperature;humidity
77867;BME280;67271;59.120;37.970;2023-02-28T00:04:10;99375.69;;;-5.82;76.28
77867;BME280;67271;59.120;37.970;2023-02-28T00:06:36;99385.78;;;-5.88;76.91
77867;BME280;67271;59.120;37.970;2023-02-28T00:09:02;99364.69;;;-5.88;76.68
77867;BME280;67271;59.120;37.970;2023-02-28T00:11:28;99349.47;;;-5.84;76.84
77867;BME280;67271;59.120;37.970;2023-02-28T00:13:53;99356.53;;;-5.85;76.48
77867;BME280;67271;59.120;37.970;2023-02-28T00:16:21;99345.16;;;-5.85;77.06
77867;BME280;67271;59.120;37.970;2023-02-28T00:18:48;99322.38;;;-5.86;77.00
77867;BME280;67271;59.120;37.970;2023-02-28T00:21:15;99304.13;;;-5.88;76.57
77867;BME280;67271;59.120;37.970;2023-02-28T00:23:41;99307.44;;;-5.86;76.76
77867;BME280;67271;59.120;37.970;2023-02-28T00:26:07;99283.06;;;-5.88;76.66
77867;BME280;67271;59.120;37.970;2023-02-28T00:28:32;99287.47;;;-5.88;76.80
77867;BME280;67271;59.120;37.970;2023-02-28T00:30:59;99294.16;;;-5.84;76.41
77867;BME280;67271;59.120;37.970;2023-02-28T00:33:26;99285.91;;;-5.79;76.88
77867;BME280;67271;59.120;37.970;2023-02-28T00:36:10;99292.25;;;-5.82;76.80
77867;BME280;67271;59.120;37.970;2023-02-28T00:38:37;99289.72;;;-5.83;77.08
77867;BME280;67271;59.120;37.970;2023-02-28T00:41:03;99266.97;;;-5.85;77.58
77867;BME280;67271;59.120;37.970;2023-02-28T00:43:33;99266.97;;;-5.85;77.71
77867;BME280;67271;59.120;37.970;2023-02-28T00:46:00;99253.31;;;-5.78;78.23
77867;BME280;67271;59.120;37.970;2023-02-28T00:48:26;99241.50;;;-5.73;77.63
77867;BME280;67271;59.120;37.970;2023-02-28T00:50:53;99242.56;;;-5.75;78.24
77867;BME280;67271;59.120;37.970;2023-02-28T00:53:19;99243.31;;;-5.73;77.96
77867;BME280;67271;59.120;37.970;2023-02-28T00:55:45;99222.22;;;-5.73;78.65
77867;BME280;67271;59.120;37.970;2023-02-28T00:58:11;99239.47;;;-5.69;78.24
77867;BME280;67271;59.120;37.970;2023-02-28T01:00:36;99226.81;;;-5.64;78.19
77867;BME280;67271;59.120;37.970;2023-02-28T01:03:02;99225.81;;;-5.63;78.04
77867;BME280;67271;59.120;37.970;2023-02-28T01:05:28;99220.53;;;-5.63;78.37
77867;BME280;67271;59.120;37.970;2023-02-28T01:07:53;99207.88;;;-5.58;78.78
77867;BME280;67271;59.120;37.970;2023-02-28T01:10:19;99206.41;;;-5.62;78.89
77867;BME280;67271;59.120;37.970;2023-02-28T01:12:46;99219.59;;;-5.62;78.91
77867;BME280;67271;59.120;37.970;2023-02-28T01:15:14;99228.22;;;-5.60;78.61
77867;BME280;67271;59.120;37.970;2023-02-28T01:17:40;99224.66;;;-5.59;78.55
77867;BME280;67271;59.120;37.970;2023-02-28T01:20:06;99224.75;;;-5.61;78.97
77867;BME280;67271;59.120;37.970;2023-02-28T01:22:34;99231.81;;;-5.61;78.51
77867;BME280;67271;59.120;37.970;2023-02-28T01:25:00;99244.25;;;-5.63;79.29
77867;BME280;67271;59.120;37.970;2023-02-28T01:27:26;99229.06;;;-5.60;79.34
77867;BME280;67271;59.120;37.970;2023-02-28T01:29:52;99243.81;;;-5.57;79.46
77867;BME280;67271;59.120;37.970;2023-02-28T01:32:18;99227.03;;;-5.56;79.21
77867;BME280;67271;59.120;37.970;2023-02-28T01:34:43;99234.13;;;-5.57;79.36
77867;BME280;67271;59.120;37.970;2023-02-28T01:37:09;99214.56;;;-5.54;79.43
77867;BME280;67271;59.120;37.970;2023-02-28T01:39:35;99220.56;;;-5.52;79.26
77867;BME280;67271;59.120;37.970;2023-02-28T01:42:02;99211.72;;;-5.51;79.62
77867;BME280;67271;59.120;37.970;2023-02-28T01:47:40;99201.19;;;-5.51;79.78
77867;BME280;67271;59.120;37.970;2023-02-28T01:50:12;99210.75;;;-5.50;79.62
77867;BME280;67271;59.120;37.970;2023-02-28T01:52:40;99193.75;;;-5.46;80.09
77867;BME280;67271;59.120;37.970;2023-02-28T01:55:07;99190.16;;;-5.45;79.92
77867;BME280;67271;59.120;37.970;2023-02-28T01:57:38;99197.84;;;-5.42;80.31
77867;BME280;67271;59.120;37.970;2023-02-28T02:00:08;99195.06;;;-5.40;80.06
77867;BME280;67271;59.120;37.970;2023-02-28T02:02:48;99173.63;;;-5.36;80.52
77867;BME280;67271;59.120;37.970;2023-02-28T02:05:19;99155.41;;;-5.39;80.09
77867;BME280;67271;59.120;37.970;2023-02-28T02:07:48;99166.91;;;-5.40;80.80
77867;BME280;67271;59.120;37.970;2023-02-28T02:10:21;99165.00;;;-5.38;80.80
77867;BME280;67271;59.120;37.970;2023-02-28T02:18:51;99138.88;;;-5.30;81.37
77867;BME280;67271;59.120;37.970;2023-02-28T02:37:29;99096.91;;;-5.22;82.85
77867;BME280;67271;59.120;37.970;2023-02-28T02:45:59;99080.13;;;-5.21;82.93
77867;BME280;67271;59.120;37.970;2023-02-28T02:48:02;99064.88;;;-5.17;82.79
77867;BME280;67271;59.120;37.970;2023-02-28T02:50:33;99071.72;;;-5.15;82.63
77867;BME280;67271;59.120;37.970;2023-02-28T02:53:03;99076.16;;;-5.15;83.40
77867;BME280;67271;59.120;37.970;2023-02-28T02:55:34;99077.97;;;-5.16;83.09
77867;BME280;67271;59.120;37.970;2023-02-28T02:58:06;99078.78;;;-5.15;83.58
77867;BME280;67271;59.120;37.970;2023-02-28T03:00:39;99067.16;;;-5.13;83.34
77867;BME280;67271;59.120;37.970;2023-02-28T03:03:10;99059.94;;;-5.11;83.68
77867;BME280;67271;59.120;37.970;2023-02-28T03:05:48;99045.81;;;-5.10;83.29
77867;BME280;67271;59.120;37.970;2023-02-28T03:08:15;99044.84;;;-5.09;83.25
77867;BME280;67271;59.120;37.970;2023-02-28T03:10:45;99020.16;;;-5.08;83.33
77867;BME280;67271;59.120;37.970;2023-02-28T03:21:40;99006.72;;;-5.04;84.64
77867;BME280;67271;59.120;37.970;2023-02-28T03:24:19;99002.97;;;-5.02;84.27
77867;BME280;67271;59.120;37.970;2023-02-28T03:26:54;98988.59;;;-4.98;84.09
77867;BME280;67271;59.120;37.970;2023-02-28T03:29:29;98991.78;;;-4.94;84.08
77867;BME280;67271;59.120;37.970;2023-02-28T03:32:26;98967.81;;;-4.91;84.38
77867;BME280;67271;59.120;37.970;2023-02-28T03:35:12;98992.28;;;-4.89;83.89
77867;BME280;67271;59.120;37.970;2023-02-28T03:37:42;98960.34;;;-4.86;84.48
77867;BME280;67271;59.120;37.970;2023-02-28T03:40:12;98979.53;;;-4.84;83.89
77867;BME280;67271;59.120;37.970;2023-02-28T03:42:43;98954.09;;;-4.85;84.13
77867;BME280;67271;59.120;37.970;2023-02-28T03:45:13;98961.06;;;-4.84;84.25
77867;BME280;67271;59.120;37.970;2023-02-28T03:47:54;98952.06;;;-4.82;83.70
77867;BME280;67271;59.120;37.970;2023-02-28T03:50:24;98948.31;;;-4.79;84.01
77867;BME280;67271;59.120;37.970;2023-02-28T03:53:04;98945.31;;;-4.75;84.00
77867;BME280;67271;59.120;37.970;2023-02-28T03:55:45;98944.91;;;-4.70;83.97
77867;BME280;67271;59.120;37.970;2023-02-28T03:58:26;98929.50;;;-4.65;84.31
77867;BME280;67271;59.120;37.970;2023-02-28T04:01:06;98917.97;;;-4.64;84.15
77867;BME280;67271;59.120;37.970;2023-02-28T04:03:37;98938.13;;;-4.63;83.88
77867;BME280;67271;59.120;37.970;2023-02-28T04:06:06;98910.53;;;-4.59;84.07
77867;BME280;67271;59.120;37.970;2023-02-28T04:08:33;98914.56;;;-4.55;83.81
77867;BME280;67271;59.120;37.970;2023-02-28T04:11:08;98893.31;;;-4.53;83.67
77867;BME280;67271;59.120;37.970;2023-02-28T04:13:38;98891.94;;;-4.48;83.29
77867;BME280;67271;59.120;37.970;2023-02-28T04:16:07;98903.09;;;-4.44;83.46
77867;BME280;67271;59.120;37.970;2023-02-28T04:18:41;98893.09;;;-4.41;83.71
77867;BME280;67271;59.120;37.970;2023-02-28T04:21:08;98888.50;;;-4.39;83.56
77867;BME280;67271;59.120;37.970;2023-02-28T04:23:34;98889.34;;;-4.38;83.60
77867;BME280;67271;59.120;37.970;2023-02-28T04:26:00;98880.59;;;-4.39;83.24
77867;BME280;67271;59.120;37.970;2023-02-28T04:28:26;98868.22;;;-4.38;83.49
77867;BME280;67271;59.120;37.970;2023-02-28T04:31:00;98869.63;;;-4.34;83.54
77867;BME280;67271;59.120;37.970;2023-02-28T04:33:26;98864.22;;;-4.33;83.58
77867;BME280;67271;59.120;37.970;2023-02-28T04:36:04;98852.69;;;-4.32;82.91
77867;BME280;67271;59.120;37.970;2023-02-28T04:38:33;98836.72;;;-4.30;83.29
77867;BME280;67271;59.120;37.970;2023-02-28T04:40:59;98826.03;;;-4.28;82.83
77867;BME280;67271;59.120;37.970;2023-02-28T04:43:26;98823.09;;;-4.25;82.83
77867;BME280;67271;59.120;37.970;2023-02-28T04:45:53;98813.38;;;-4.25;83.60
77867;BME280;67271;59.120;37.970;2023-02-28T04:48:27;98800.88;;;-4.23;82.75
77867;BME280;67271;59.120;37.970;2023-02-28T04:50:54;98797.94;;;-4.20;83.17
77867;BME280;67271;59.120;37.970;2023-02-28T04:53:20;98788.91;;;-4.17;82.69
77867;BME280;67271;59.120;37.970;2023-02-28T04:55:46;98794.63;;;-4.12;83.09
77867;BME280;67271;59.120;37.970;2023-02-28T04:58:15;98804.78;;;-4.08;82.75
77867;BME280;67271;59.120;37.970;2023-02-28T05:00:41;98791.72;;;-4.00;83.16
77867;BME280;67271;59.120;37.970;2023-02-28T05:03:07;98800.91;;;-3.94;82.70
77867;BME280;67271;59.120;37.970;2023-02-28T05:05:33;98794.22;;;-3.88;82.70
77867;BME280;67271;59.120;37.970;2023-02-28T05:07:59;98796.59;;;-3.85;82.47
77867;BME280;67271;59.120;37.970;2023-02-28T05:10:24;98808.97;;;-3.76;82.69
77867;BME280;67271;59.120;37.970;2023-02-28T05:12:50;98805.63;;;-3.69;82.31
77867;BME280;67271;59.120;37.970;2023-02-28T05:15:16;98808.28;;;-3.69;82.72
77867;BME280;67271;59.120;37.970;2023-02-28T05:17:42;98815.91;;;-3.66;82.46
77867;BME280;67271;59.120;37.970;2023-02-28T05:20:09;98814.81;;;-3.63;82.75
77867;BME280;67271;59.120;37.970;2023-02-28T05:22:36;98815.09;;;-3.57;82.89
77867;BME280;67271;59.120;37.970;2023-02-28T05:25:03;98807.56;;;-3.52;82.47
77867;BME280;67271;59.120;37.970;2023-02-28T05:27:30;98801.69;;;-3.45;82.33
77867;BME280;67271;59.120;37.970;2023-02-28T05:29:56;98809.22;;;-3.41;82.49
77867;BME280;67271;59.120;37.970;2023-02-28T05:32:22;98809.75;;;-3.37;82.13
77867;BME280;67271;59.120;37.970;2023-02-28T05:34:48;98813.94;;;-3.35;82.28
77867;BME280;67271;59.120;37.970;2023-02-28T05:37:14;98788.91;;;-3.31;81.92
77867;BME280;67271;59.120;37.970;2023-02-28T05:39:41;98782.47;;;-3.28;82.03
77867;BME280;67271;59.120;37.970;2023-02-28T05:42:07;98774.94;;;-3.23;81.87
77867;BME280;67271;59.120;37.970;2023-02-28T05:44:34;98775.50;;;-3.20;82.05
77867;BME280;67271;59.120;37.970;2023-02-28T05:47:00;98773.41;;;-3.16;82.14
77867;BME280;67271;59.120;37.970;2023-02-28T05:49:25;98763.09;;;-3.09;81.83
77867;BME280;67271;59.120;37.970;2023-02-28T05:51:51;98752.59;;;-3.01;81.90
77867;BME280;67271;59.120;37.970;2023-02-28T05:54:17;98745.91;;;-2.96;81.96
77867;BME280;67271;59.120;37.970;2023-02-28T05:56:43;98743.78;;;-2.92;81.54
77867;BME280;67271;59.120;37.970;2023-02-28T05:59:10;98757.28;;;-2.86;81.39
77867;BME280;67271;59.120;37.970;2023-02-28T06:01:41;98757.28;;;-2.86;81.90
77867;BME280;67271;59.120;37.970;2023-02-28T06:04:10;98740.56;;;-2.86;81.85
77867;BME280;67271;59.120;37.970;2023-02-28T06:06:36;98725.22;;;-2.83;81.39
77867;BME280;67271;59.120;37.970;2023-02-28T06:09:06;98735.50;;;-2.80;81.49
77867;BME280;67271;59.120;37.970;2023-02-28T06:11:32;98719.03;;;-2.74;81.88
77867;BME280;67271;59.120;37.970;2023-02-28T06:14:00;98726.97;;;-2.74;81.41
77867;BME280;67271;59.120;37.970;2023-02-28T06:16:27;98719.03;;;-2.74;81.79
77867;BME280;67271;59.120;37.970;2023-02-28T06:18:54;98719.28;;;-2.67;81.72
77867;BME280;67271;59.120;37.970;2023-02-28T06:21:23;98714.31;;;-2.52;81.39
77867;BME280;67271;59.120;37.970;2023-02-28T06:23:49;98712.66;;;-2.36;81.02
77867;BME280;67271;59.120;37.970;2023-02-28T06:26:15;98685.59;;;-2.12;80.83
77867;BME280;67271;59.120;37.970;2023-02-28T06:28:41;98701.78;;;-1.97;80.18
77867;BME280;67271;59.120;37.970;2023-02-28T06:31:12;98691.59;;;-1.84;80.25
77867;BME280;67271;59.120;37.970;2023-02-28T06:33:39;98693.34;;;-1.92;80.27
77867;BME280;67271;59.120;37.970;2023-02-28T06:36:06;98683.44;;;-1.90;80.15
77867;BME280;67271;59.120;37.970;2023-02-28T06:38:32;98700.75;;;-1.78;80.02
77867;BME280;67271;59.120;37.970;2023-02-28T06:40:59;98707.22;;;-1.81;80.30
77867;BME280;67271;59.120;37.970;2023-02-28T06:43:28;98703.19;;;-1.85;80.55
77867;BME280;67271;59.120;37.970;2023-02-28T06:45:56;98698.03;;;-1.86;80.85
77867;BME280;67271;59.120;37.970;2023-02-28T06:48:23;98693.34;;;-1.92;80.79
77867;BME280;67271;59.120;37.970;2023-02-28T06:50:49;98694.41;;;-1.85;81.14
77867;BME280;67271;59.120;37.970;2023-02-28T06:53:15;98703.66;;;-1.89;81.25
77867;BME280;67271;59.120;37.970;2023-02-28T06:55:41;98708.63;;;-1.86;81.34
77867;BME280;67271;59.120;37.970;2023-02-28T06:58:07;98711.06;;;-1.75;81.29
77867;BME280;67271;59.120;37.970;2023-02-28T07:01:24;98705.34;;;-1.63;80.97
77867;BME280;67271;59.120;37.970;2023-02-28T07:03:50;98706.72;;;-1.59;80.92
77867;BME280;67271;59.120;37.970;2023-02-28T07:06:22;98709.50;;;-1.60;81.06
77867;BME280;67271;59.120;37.970;2023-02-28T07:08:49;98701.06;;;-1.56;80.88
77867;BME280;67271;59.120;37.970;2023-02-28T07:11:15;98712.00;;;-1.59;80.91
77867;BME280;67271;59.120;37.970;2023-02-28T07:13:41;98699.31;;;-1.47;80.98
77867;BME280;67271;59.120;37.970;2023-02-28T07:16:09;98697.50;;;-1.12;80.52
77867;BME280;67271;59.120;37.970;2023-02-28T07:18:36;98698.47;;;-0.88;79.87
77867;BME280;67271;59.120;37.970;2023-02-28T07:21:04;98700.34;;;-0.72;79.24
77867;BME280;67271;59.120;37.970;2023-02-28T07:23:30;98700.34;;;-0.72;79.23
77867;BME280;67271;59.120;37.970;2023-02-28T07:25:56;98699.03;;;-0.76;79.82
77867;BME280;67271;59.120;37.970;2023-02-28T07:28:22;98700.03;;;-0.69;79.91
77867;BME280;67271;59.120;37.970;2023-02-28T07:30:48;98692.38;;;-0.72;79.91
77867;BME280;67271;59.120;37.970;2023-02-28T07:33:14;98698.19;;;-0.76;80.13
77867;BME280;67271;59.120;37.970;2023-02-28T07:35:40;98709.03;;;-0.62;80.03
77867;BME280;67271;59.120;37.970;2023-02-28T07:38:06;98713.53;;;-0.54;79.81
77867;BME280;67271;59.120;37.970;2023-02-28T07:40:34;98721.00;;;-0.58;79.89
77867;BME280;67271;59.120;37.970;2023-02-28T07:43:00;98716.03;;;-0.53;80.00
77867;BME280;67271;59.120;37.970;2023-02-28T07:45:27;98715.88;;;-0.43;79.98
77867;BME280;67271;59.120;37.970;2023-02-28T07:47:54;98710.13;;;-0.14;79.40
77867;BME280;67271;59.120;37.970;2023-02-28T07:50:21;98716.66;;;-0.01;79.02
77867;BME280;67271;59.120;37.970;2023-02-28T07:52:47;98712.47;;;-0.03;79.17
77867;BME280;67271;59.120;37.970;2023-02-28T07:55:13;98727.06;;;-0.07;79.14
77867;BME280;67271;59.120;37.970;2023-02-28T07:57:39;98716.44;;;-0.07;79.19
77867;BME280;67271;59.120;37.970;2023-02-28T08:00:08;98724.78;;;0.06;78.82
77867;BME280;67271;59.120;37.970;2023-02-28T08:02:37;98711.66;;;0.21;78.44
77867;BME280;67271;59.120;37.970;2023-02-28T08:05:04;98717.63;;;0.39;78.12
77867;BME280;67271;59.120;37.970;2023-02-28T08:07:30;98717.78;;;0.54;77.58
77867;BME280;67271;59.120;37.970;2023-02-28T08:09:56;98721.25;;;0.70;77.49
77867;BME280;67271;59.120;37.970;2023-02-28T08:12:22;98729.38;;;0.85;76.99
77867;BME280;67271;59.120;37.970;2023-02-28T08:14:48;98743.53;;;0.77;76.74
77867;BME280;67271;59.120;37.970;2023-02-28T08:17:14;98732.06;;;0.69;77.32
77867;BME280;67271;59.120;37.970;2023-02-28T08:19:39;98748.72;;;0.79;77.47
77867;BME280;67271;59.120;37.970;2023-02-28T08:22:05;98745.47;;;1.08;76.38
77867;BME280;67271;59.120;37.970;2023-02-28T08:24:31;98743.94;;;1.22;75.88
77867;BME280;67271;59.120;37.970;2023-02-28T08:26:57;98745.72;;;1.37;75.50
77867;BME280;67271;59.120;37.970;2023-02-28T08:29:22;98733.88;;;1.40;75.12
77867;BME280;67271;59.120;37.970;2023-02-28T08:31:48;98729.97;;;1.50;74.95
77867;BME280;67271;59.120;37.970;2023-02-28T08:34:15;98736.31;;;1.58;74.75
77867;BME280;67271;59.120;37.970;2023-02-28T08:36:42;98736.78;;;1.61;74.44
77867;BME280;67271;59.120;37.970;2023-02-28T08:39:10;98744.69;;;1.77;74.14
77867;BME280;67271;59.120;37.970;2023-02-28T08:41:36;98738.84;;;2.05;73.41
77867;BME280;67271;59.120;37.970;2023-02-28T08:44:02;98741.84;;;2.10;72.76
77867;BME280;67271;59.120;37.970;2023-02-28T08:46:28;98750.75;;;2.25;72.02
77867;BME280;67271;59.120;37.970;2023-02-28T08:48:56;98741.69;;;2.26;72.07
77867;BME280;67271;59.120;37.970;2023-02-28T08:51:24;98751.31;;;2.35;71.72
77867;BME280;67271;59.120;37.970;2023-02-28T08:53:54;98745.88;;;2.28;70.90
77867;BME280;67271;59.120;37.970;2023-02-28T08:56:21;98740.19;;;2.09;71.11
77867;BME280;67271;59.120;37.970;2023-02-28T08:58:48;98736.69;;;1.77;71.13
77867;BME280;67271;59.120;37.970;2023-02-28T09:01:25;98747.22;;;1.40;71.30
77867;BME280;67271;59.120;37.970;2023-02-28T09:03:53;98744.28;;;1.19;71.53
77867;BME280;67271;59.120;37.970;2023-02-28T09:06:22;98746.63;;;1.05;70.53
77867;BME280;67271;59.120;37.970;2023-02-28T09:08:49;98761.75;;;1.13;69.88
77867;BME280;67271;59.120;37.970;2023-02-28T09:11:16;98783.63;;;1.00;70.03
77867;BME280;67271;59.120;37.970;2023-02-28T09:13:42;98771.69;;;0.72;69.30
77867;BME280;67271;59.120;37.970;2023-02-28T09:16:11;98770.31;;;0.84;68.90
77867;BME280;67271;59.120;37.970;2023-02-28T09:18:37;98782.28;;;1.12;67.11
77867;BME280;67271;59.120;37.970;2023-02-28T09:21:08;98777.09;;;1.58;65.45
77867;BME280;67271;59.120;37.970;2023-02-28T09:23:35;98790.72;;;1.71;64.12
77867;BME280;67271;59.120;37.970;2023-02-28T09:26:04;98789.44;;;1.59;64.09
77867;BME280;67271;59.120;37.970;2023-02-28T09:28:30;98787.47;;;1.53;63.49
77867;BME280;67271;59.120;37.970;2023-02-28T09:30:56;98778.41;;;1.70;63.42
77867;BME280;67271;59.120;37.970;2023-02-28T09:33:24;98775.31;;;1.81;62.56
77867;BME280;67271;59.120;37.970;2023-02-28T09:35:51;98775.25;;;1.98;62.17
77867;BME280;67271;59.120;37.970;2023-02-28T09:38:22;98784.53;;;2.10;61.38
77867;BME280;67271;59.120;37.970;2023-02-28T09:40:50;98799.59;;;2.03;60.92
77867;BME280;67271;59.120;37.970;2023-02-28T09:43:20;98801.94;;;1.59;61.29
77867;BME280;67271;59.120;37.970;2023-02-28T09:48:40;98799.78;;;1.54;60.47
77867;BME280;67271;59.120;37.970;2023-02-28T09:54:21;98812.66;;;1.42;59.38
77867;BME280;67271;59.120;37.970;2023-02-28T10:05:29;98817.19;;;1.26;58.00
77867;BME280;67271;59.120;37.970;2023-02-28T10:08:13;98820.03;;;1.16;57.59
77867;BME280;67271;59.120;37.970;2023-02-28T10:10:44;98808.56;;;1.07;57.56
77867;BME280;67271;59.120;37.970;2023-02-28T10:13:25;98825.56;;;0.98;57.43
77867;BME280;67271;59.120;37.970;2023-02-28T10:16:02;98821.94;;;0.67;56.98
77867;BME280;67271;59.120;37.970;2023-02-28T10:18:46;98825.22;;;0.28;57.70
77867;BME280;67271;59.120;37.970;2023-02-28T10:21:26;98816.66;;;-0.08;57.83
77867;BME280;67271;59.120;37.970;2023-02-28T10:24:03;98819.72;;;-0.28;58.66
77867;BME280;67271;59.120;37.970;2023-02-28T10:26:32;98814.81;;;-0.07;58.36
77867;BME280;67271;59.120;37.970;2023-02-28T10:28:58;98807.88;;;0.16;57.91
77867;BME280;67271;59.120;37.970;2023-02-28T10:31:24;98811.91;;;0.20;57.72
77867;BME280;67271;59.120;37.970;2023-02-28T10:33:50;98814.22;;;0.23;57.39
77867;BME280;67271;59.120;37.970;2023-02-28T10:36:19;98813.22;;;0.16;57.54
77867;BME280;67271;59.120;37.970;2023-02-28T10:38:46;98828.00;;;0.11;57.44
77867;BME280;67271;59.120;37.970;2023-02-28T10:41:15;98824.84;;;0.07;57.29
77867;BME280;67271;59.120;37.970;2023-02-28T10:43:43;98821.44;;;-0.19;57.59
77867;BME280;67271;59.120;37.970;2023-02-28T10:48:44;98832.94;;;-0.53;58.45
77867;BME280;67271;59.120;37.970;2023-02-28T10:51:15;98824.38;;;-0.38;58.04
77867;BME280;67271;59.120;37.970;2023-02-28T10:53:49;98831.00;;;0.24;56.75
77867;BME280;67271;59.120;37.970;2023-02-28T10:56:23;98830.03;;;1.14;54.69
77867;BME280;67271;59.120;37.970;2023-02-28T10:58:50;98823.06;;;1.68;52.81
77867;BME280;67271;59.120;37.970;2023-02-28T11:01:24;98817.09;;;1.58;52.91
77867;BME280;67271;59.120;37.970;2023-02-28T11:03:51;98826.19;;;1.25;53.53
77867;BME280;67271;59.120;37.970;2023-02-28T11:08:48;98844.88;;;0.84;54.43
77867;BME280;67271;59.120;37.970;2023-02-28T11:11:15;98849.22;;;0.85;53.70
77867;BME280;67271;59.120;37.970;2023-02-28T11:13:44;98843.56;;;0.80;53.25
77867;BME280;67271;59.120;37.970;2023-02-28T11:16:12;98845.22;;;0.81;53.75
77867;BME280;67271;59.120;37.970;2023-02-28T11:18:49;98837.41;;;0.96;53.18
77867;BME280;67271;59.120;37.970;2023-02-28T11:21:28;98840.06;;;1.04;52.92
77867;BME280;67271;59.120;37.970;2023-02-28T11:24:02;98849.72;;;0.97;53.08
77867;BME280;67271;59.120;37.970;2023-02-28T11:26:55;98861.53;;;0.78;53.50
77867;BME280;67271;59.120;37.970;2023-02-28T11:29:25;98848.19;;;0.29;54.93
77867;BME280;67271;59.120;37.970;2023-02-28T11:32:04;98860.84;;;-0.07;55.65
77867;BME280;67271;59.120;37.970;2023-02-28T11:34:31;98853.78;;;-0.32;55.81
77867;BME280;67271;59.120;37.970;2023-02-28T11:36:59;98857.44;;;-0.59;56.16
77867;BME280;67271;59.120;37.970;2023-02-28T11:39:26;98865.66;;;-0.78;56.37
77867;BME280;67271;59.120;37.970;2023-02-28T11:45:00;98869.38;;;-0.89;55.60
77867;BME280;67271;59.120;37.970;2023-02-28T11:53:29;98879.38;;;-0.83;54.96
77867;BME280;67271;59.120;37.970;2023-02-28T11:56:19;98866.16;;;-1.00;54.64
77867;BME280;67271;59.120;37.970;2023-02-28T12:04:25;98870.88;;;-0.68;53.87
77867;BME280;67271;59.120;37.970;2023-02-28T12:07:19;98864.13;;;-0.21;52.93
77867;BME280;67271;59.120;37.970;2023-02-28T12:21:41;98895.13;;;-0.63;53.42
77867;BME280;67271;59.120;37.970;2023-02-28T12:23:50;98900.91;;;-0.68;53.84
77867;BME280;67271;59.120;37.970;2023-02-28T12:29:29;98916.78;;;-0.50;53.26
77867;BME280;67271;59.120;37.970;2023-02-28T12:32:18;98898.34;;;-0.52;53.39
77867;BME280;67271;59.120;37.970;2023-02-28T12:37:51;98903.69;;;-0.44;53.57
77867;BME280;67271;59.120;37.970;2023-02-28T12:40:23;98917.00;;;-0.44;54.02
77867;BME280;67271;59.120;37.970;2023-02-28T12:43:04;98894.03;;;-0.53;54.43
77867;BME280;67271;59.120;37.970;2023-02-28T12:45:44;98916.84;;;-0.68;54.73
77867;BME280;67271;59.120;37.970;2023-02-28T12:48:15;98921.09;;;-0.75;54.85
77867;BME280;67271;59.120;37.970;2023-02-28T12:50:45;98913.31;;;-0.76;55.04
77867;BME280;67271;59.120;37.970;2023-02-28T12:53:14;98920.66;;;-0.70;54.86
77867;BME280;67271;59.120;37.970;2023-02-28T12:58:37;98927.50;;;-0.86;55.13
77867;BME280;67271;59.120;37.970;2023-02-28T13:10:00;98930.16;;;-1.03;55.38
77867;BME280;67271;59.120;37.970;2023-02-28T13:12:28;98924.50;;;-1.08;55.04
77867;BME280;67271;59.120;37.970;2023-02-28T13:15:24;98925.66;;;-1.29;54.93
77867;BME280;67271;59.120;37.970;2023-02-28T13:17:52;98940.09;;;-1.41;55.01
77867;BME280;67271;59.120;37.970;2023-02-28T13:20:28;98930.47;;;-1.42;54.94
77867;BME280;67271;59.120;37.970;2023-02-28T13:22:55;98940.72;;;-1.47;54.77
77867;BME280;67271;59.120;37.970;2023-02-28T13:27:49;98935.88;;;-1.51;55.07
77867;BME280;67271;59.120;37.970;2023-02-28T13:33:34;98947.88;;;-1.57;55.05
77867;BME280;67271;59.120;37.970;2023-02-28T13:38:42;98940.19;;;-1.50;54.85
77867;BME280;67271;59.120;37.970;2023-02-28T13:44:12;98944.47;;;-1.67;55.16
77867;BME280;67271;59.120;37.970;2023-02-28T13:49:23;98948.72;;;-1.74;55.19
77867;BME280;67271;59.120;37.970;2023-02-28T13:51:52;98951.34;;;-1.74;55.15
77867;BME280;67271;59.120;37.970;2023-02-28T13:59:54;98962.84;;;-1.83;55.56
77867;BME280;67271;59.120;37.970;2023-02-28T14:05:16;98960.75;;;-2.17;56.52
77867;BME280;67271;59.120;37.970;2023-02-28T14:07:51;98965.81;;;-2.33;56.63
77867;BME280;67271;59.120;37.970;2023-02-28T14:10:43;98966.13;;;-2.36;56.69
77867;BME280;67271;59.120;37.970;2023-02-28T14:15:58;98975.84;;;-2.27;56.91
77867;BME280;67271;59.120;37.970;2023-02-28T14:18:33;98971.41;;;-2.26;57.12
77867;BME280;67271;59.120;37.970;2023-02-28T14:34:55;98972.84;;;-2.51;57.19
77867;BME280;67271;59.120;37.970;2023-02-28T14:37:29;98980.09;;;-2.53;57.18
77867;BME280;67271;59.120;37.970;2023-02-28T14:39:58;98968.97;;;-2.57;57.09
77867;BME280;67271;59.120;37.970;2023-02-28T14:42:34;98982.03;;;-2.55;57.47
77867;BME280;67271;59.120;37.970;2023-02-28T14:45:01;98980.41;;;-2.56;57.44
77867;BME280;67271;59.120;37.970;2023-02-28T14:47:30;98978.16;;;-2.61;56.96
77867;BME280;67271;59.120;37.970;2023-02-28T14:49:58;98977.31;;;-2.61;57.10
77867;BME280;67271;59.120;37.970;2023-02-28T14:52:29;98974.81;;;-2.63;57.56
77867;BME280;67271;59.120;37.970;2023-02-28T14:55:13;98977.63;;;-2.64;57.38
77867;BME280;67271;59.120;37.970;2023-02-28T14:57:58;98974.53;;;-2.69;57.21
77867;BME280;67271;59.120;37.970;2023-02-28T15:00:32;98977.63;;;-2.74;57.42
77867;BME280;67271;59.120;37.970;2023-02-28T15:03:00;98982.34;;;-2.78;57.55
77867;BME280;67271;59.120;37.970;2023-02-28T15:05:33;98977.34;;;-2.81;57.66
77867;BME280;67271;59.120;37.970;2023-02-28T15:08:15;98986.69;;;-2.86;57.51
77867;BME280;67271;59.120;37.970;2023-02-28T15:11:19;98988.66;;;-2.88;57.08
77867;BME280;67271;59.120;37.970;2023-02-28T15:13:52;98986.28;;;-3.01;57.44
77867;BME280;67271;59.120;37.970;2023-02-28T15:16:39;98995.44;;;-3.15;57.83
77867;BME280;67271;59.120;37.970;2023-02-28T15:19:26;98990.84;;;-3.22;57.52
77867;BME280;67271;59.120;37.970;2023-02-28T15:22:03;98989.19;;;-3.33;57.92
77867;BME280;67271;59.120;37.970;2023-02-28T15:27:04;98991.34;;;-3.67;58.50
77867;BME280;67271;59.120;37.970;2023-02-28T15:29:46;98989.19;;;-3.82;58.96
77867;BME280;67271;59.120;37.970;2023-02-28T15:32:35;99000.59;;;-3.92;58.78
77867;BME280;67271;59.120;37.970;2023-02-28T15:35:30;98993.84;;;-4.05;59.02